Time;durP1;ratioP1;P1;durP2;ratioP2;P2;SDS_P1;SDS_P2;PMS_P1;PMS_P2;Temp;Humidity;BMP_temperature;BMP_pressure;BME280_temperature;BME280_humidity;BME280_pressure;Samples;Min_cycle;Max_cycle;Signal;HPM_P1;HPM_P2
2022/08/07 00:00:14;;;;;;;3.83;2.87;;;;;;;18.71;77.93;98899.25;4485493;32;20481;-71
2022/08/07 00:02:45;;;;;;;4.22;2.90;;;;;;;18.75;77.82;98897.03;4485278;32;20068;-71
2022/08/07 00:05:12;;;;;;;2.90;2.60;;;;;;;18.80;77.65;98907.91;4485469;32;20145;-71
2022/08/07 00:07:40;;;;;;;4.57;2.78;;;;;;;18.79;77.67;98908.94;4485733;31;20100;-71
2022/08/07 00:10:08;;;;;;;4.40;2.60;;;;;;;18.76;77.73;98904.00;4485621;32;20209;-71
2022/08/07 00:12:57;;;;;;;3.60;2.80;;;;;;;18.71;77.91;98901.91;4485697;31;20370;-71
2022/08/07 00:15:31;;;;;;;4.15;2.90;;;;;;;18.73;77.90;98904.37;4485510;32;20476;-71
2022/08/07 00:18:14;;;;;;;6.70;2.80;;;;;;;18.76;77.83;98906.66;4485891;31;20362;-71
2022/08/07 00:20:48;;;;;;;3.30;2.47;;;;;;;18.68;78.14;98907.56;4485395;31;20088;-71
2022/08/07 00:23:16;;;;;;;3.33;2.70;;;;;;;18.69;78.20;98906.56;4485350;31;20143;-71
2022/08/07 00:25:43;;;;;;;3.47;2.80;;;;;;;18.56;78.67;98899.28;4485400;31;20157;-71
2022/08/07 00:28:19;;;;;;;3.17;2.85;;;;;;;18.59;78.64;98898.91;4485535;31;20219;-71
2022/08/07 00:30:48;;;;;;;3.90;3.08;;;;;;;18.57;78.71;98900.91;4485103;31;20092;-71
2022/08/07 00:33:15;;;;;;;4.55;3.28;;;;;;;18.56;78.87;98899.28;4485275;31;20430;-71
2022/08/07 00:35:43;;;;;;;3.87;3.10;;;;;;;18.50;79.20;98907.97;4485297;32;20093;-71
2022/08/07 00:38:15;;;;;;;4.18;3.08;;;;;;;18.55;79.06;98897.63;4484117;31;20084;-71
2022/08/07 00:40:58;;;;;;;4.07;3.20;;;;;;;18.58;78.90;98904.41;4485289;32;20153;-71
2022/08/07 00:43:26;;;;;;;4.47;3.05;;;;;;;18.56;79.01;98909.88;4485480;31;20088;-70
2022/08/07 00:46:13;;;;;;;3.87;2.92;;;;;;;18.50;79.41;98910.63;4485310;31;20076;-70
2022/08/07 00:48:40;;;;;;;5.30;3.25;;;;;;;18.48;79.47;98907.31;4485187;31;20157;-71
2022/08/07 00:51:08;;;;;;;5.68;2.87;;;;;;;18.43;79.78;98907.06;4485274;31;20081;-71
2022/08/07 00:53:36;;;;;;;4.55;3.60;;;;;;;18.44;79.73;98900.75;4483854;32;20197;-71
2022/08/07 00:56:17;;;;;;;3.15;2.72;;;;;;;18.50;79.57;98899.19;4485093;31;20119;-71
2022/08/07 00:58:44;;;;;;;4.03;3.08;;;;;;;18.50;79.58;98893.88;4485278;31;20116;-70
2022/08/07 01:01:16;;;;;;;7.05;3.30;;;;;;;18.51;79.52;98898.19;4484949;31;20156;-71
2022/08/07 01:03:45;;;;;;;5.95;3.60;;;;;;;18.55;79.18;98896.81;4485077;31;20096;-71
2022/08/07 01:06:29;;;;;;;4.45;3.25;;;;;;;18.53;79.29;98894.34;4485301;31;20765;-71
2022/08/07 01:08:58;;;;;;;5.05;3.80;;;;;;;18.48;79.66;98888.75;4485279;32;20089;-71
2022/08/07 01:11:28;;;;;;;5.12;3.20;;;;;;;18.51;79.50;98890.22;4485054;31;20092;-71
2022/08/07 01:14:17;;;;;;;4.12;3.20;;;;;;;18.52;79.37;98886.56;4485148;31;20149;-71
2022/08/07 01:16:55;;;;;;;3.90;3.40;;;;;;;18.53;79.42;98899.66;4485422;31;20156;-71
2022/08/07 01:19:25;;;;;;;3.75;3.40;;;;;;;18.50;79.49;98897.38;4484155;32;20130;-71
2022/08/07 01:21:58;;;;;;;5.47;3.60;;;;;;;18.49;79.60;98895.72;4485018;31;20505;-71
2022/08/07 01:24:28;;;;;;;3.92;3.15;;;;;;;18.46;79.75;98900.56;4485068;32;20088;-71
2022/08/07 01:26:58;;;;;;;4.20;3.17;;;;;;;18.40;80.15;98894.16;4485347;31;20112;-71
2022/08/07 01:29:27;;;;;;;4.55;3.10;;;;;;;18.47;79.82;98895.09;4485227;31;20164;-71
2022/08/07 01:32:02;;;;;;;5.82;3.30;;;;;;;18.48;79.87;98896.72;4484770;31;20111;-71
2022/08/07 01:34:43;;;;;;;4.82;3.42;;;;;;;18.52;79.74;98892.69;4485333;31;20458;-71
2022/08/07 01:37:16;;;;;;;4.60;3.50;;;;;;;18.59;79.32;98893.59;4485180;32;20518;-71
2022/08/07 01:39:46;;;;;;;6.72;3.35;;;;;;;18.65;79.04;98896.50;4485269;31;20149;-71
2022/08/07 01:42:16;;;;;;;4.95;3.72;;;;;;;18.66;79.04;98898.16;4484995;31;20122;-71
2022/08/07 01:45:04;;;;;;;5.00;3.67;;;;;;;18.61;79.18;98890.75;4484992;31;20111;-71
2022/08/07 01:47:42;;;;;;;4.43;3.75;;;;;;;18.58;79.30;98891.94;4484711;31;20091;-71
2022/08/07 01:50:30;;;;;;;4.82;3.55;;;;;;;18.62;79.21;98892.38;4484952;32;20119;-71
2022/08/07 01:52:59;;;;;;;4.18;3.53;;;;;;;18.61;79.11;98891.56;4483564;32;20606;-70
2022/08/07 01:55:29;;;;;;;4.07;3.20;;;;;;;18.65;79.10;98891.19;4483888;32;20080;-71
2022/08/07 01:58:01;;;;;;;4.12;3.35;;;;;;;18.65;78.94;98899.16;4483699;32;20096;-71
2022/08/07 02:00:51;;;;;;;5.25;3.85;;;;;;;18.69;78.84;98892.47;4483693;32;20088;-71
2022/08/07 02:03:41;;;;;;;5.85;3.70;;;;;;;18.66;78.88;98898.97;4484520;31;20155;-71
2022/08/07 02:06:19;;;;;;;4.12;3.22;;;;;;;18.64;79.04;98887.72;4483725;32;20072;-71
2022/08/07 02:09:02;;;;;;;4.30;3.50;;;;;;;18.61;79.13;98886.25;4485004;31;20507;-71
2022/08/07 02:11:34;;;;;;;4.60;3.45;;;;;;;18.65;79.03;98891.19;4483727;32;20142;-71
2022/08/07 02:14:24;;;;;;;5.12;3.55;;;;;;;18.69;78.87;98893.28;4483901;32;20167;-71
2022/08/07 02:17:09;;;;;;;5.20;4.15;;;;;;;18.51;79.50;98900.84;4484763;31;20088;-71
2022/08/07 02:19:40;;;;;;;5.55;3.97;;;;;;;18.54;79.37;98905.75;4484494;31;20123;-71
2022/08/07 02:22:28;;;;;;;5.65;4.10;;;;;;;18.49;79.47;98902.84;4484328;31;20451;-71
2022/08/07 02:24:56;;;;;;;5.45;3.42;;;;;;;18.36;80.09;98906.97;4484336;31;20527;-71
2022/08/07 02:27:26;;;;;;;4.43;3.50;;;;;;;18.38;80.19;98906.78;4483068;32;20080;-71
2022/08/07 02:30:03;;;;;;;5.35;3.47;;;;;;;18.30;80.52;98905.03;4483283;32;20114;-71
2022/08/07 02:32:36;;;;;;;6.28;3.70;;;;;;;18.30;80.47;98904.22;4483941;31;20122;-71
2022/08/07 02:35:24;;;;;;;5.40;4.07;;;;;;;18.29;80.58;98911.37;4484248;32;20147;-71
2022/08/07 02:38:13;;;;;;;5.40;4.10;;;;;;;18.30;80.52;98920.16;4484393;31;20092;-71
2022/08/07 02:40:43;;;;;;;6.55;4.20;;;;;;;18.27;80.69;98910.72;4483338;32;20583;-70
2022/08/07 02:43:14;;;;;;;5.57;4.00;;;;;;;18.27;80.83;98914.22;4484214;31;20148;-71
2022/08/07 02:45:43;;;;;;;5.80;3.83;;;;;;;18.23;80.90;98912.91;4483985;31;20520;-71
2022/08/07 02:48:29;;;;;;;6.53;3.75;;;;;;;18.26;80.89;98915.22;4483069;32;20222;-70
2022/08/07 02:51:02;;;;;;;4.85;3.60;;;;;;;18.31;80.59;98911.19;4482932;32;20154;-71
2022/08/07 02:53:34;;;;;;;8.15;3.83;;;;;;;18.22;81.04;98915.75;4482584;32;20511;-71
2022/08/07 02:56:07;;;;;;;6.05;4.12;;;;;;;18.26;80.84;98920.50;4483007;32;20484;-71
2022/08/07 02:58:49;;;;;;;5.65;3.50;;;;;;;18.17;81.21;98910.16;4482713;32;20093;-71
2022/08/07 03:01:19;;;;;;;5.62;4.18;;;;;;;18.30;80.71;98914.84;4483617;32;20160;-71
2022/08/07 03:04:05;;;;;;;5.75;3.92;;;;;;;18.29;80.76;98914.03;4486134;31;20151;-71
2022/08/07 03:06:43;;;;;;;5.78;3.80;;;;;;;18.35;80.36;98915.09;4485029;32;20110;-71
2022/08/07 03:09:12;;;;;;;5.40;3.78;;;;;;;18.34;80.33;98919.59;4485091;32;20141;-71
2022/08/07 03:11:40;;;;;;;4.90;4.00;;;;;;;18.30;80.62;98914.84;4485010;32;20097;-71
2022/08/07 03:14:26;;;;;;;5.43;4.00;;;;;;;18.33;80.30;98909.16;4484839;32;20113;-71
2022/08/07 03:16:55;;;;;;;6.18;4.07;;;;;;;18.38;80.09;98901.47;4486295;31;20088;-71
2022/08/07 03:19:23;;;;;;;5.50;3.85;;;;;;;18.35;80.19;98904.50;4485941;31;20502;-71
2022/08/07 03:22:04;;;;;;;6.22;4.00;;;;;;;18.32;80.30;98913.66;4485905;31;20108;-71
2022/08/07 03:24:33;;;;;;;8.05;4.10;;;;;;;18.29;80.51;98913.19;4484564;32;20574;-71
2022/08/07 03:27:04;;;;;;;5.85;4.47;;;;;;;18.28;80.43;98912.38;4486095;31;20141;-71
2022/08/07 03:29:45;;;;;;;4.20;3.47;;;;;;;18.31;80.15;98906.69;4486150;31;20092;-70
2022/08/07 03:32:20;;;;;;;6.20;3.55;;;;;;;18.35;80.02;98918.59;4485890;31;20461;-71
2022/08/07 03:34:53;;;;;;;4.57;3.72;;;;;;;18.40;79.92;98920.69;4484610;32;20449;-71
2022/08/07 03:37:42;;;;;;;8.30;3.80;;;;;;;18.41;79.68;98912.56;4474113;32;20473;-71
2022/08/07 03:40:12;;;;;;;6.15;3.67;;;;;;;18.38;79.85;98907.62;4468927;32;20142;-71
2022/08/07 03:42:43;;;;;;;5.10;3.65;;;;;;;18.49;79.26;98919.59;4470357;32;20101;-71
2022/08/07 03:45:10;;;;;;;4.82;3.67;;;;;;;18.56;78.91;98923.16;4468872;32;20195;-71
2022/08/07 03:47:58;;;;;;;4.18;3.35;;;;;;;18.54;78.85;98927.81;4469119;32;20104;-70
2022/08/07 03:50:25;;;;;;;4.20;3.67;;;;;;;18.52;79.07;98940.44;4470167;32;20084;-70
2022/08/07 03:52:58;;;;;;;4.75;3.70;;;;;;;18.51;79.10;98938.78;4469064;32;20553;-71
2022/08/07 03:55:28;;;;;;;4.78;3.58;;;;;;;18.37;79.75;98943.09;4468940;32;20126;-71
2022/08/07 03:58:16;;;;;;;6.93;3.50;;;;;;;18.42;79.73;98947.84;4469904;32;20513;-71
2022/08/07 04:01:05;;;;;;;5.50;3.83;;;;;;;18.33;79.97;98951.59;4468809;32;20375;-71
2022/08/07 04:03:38;;;;;;;4.78;3.60;;;;;;;18.24;80.63;98959.66;4469720;32;20139;-71
2022/08/07 04:06:22;;;;;;;5.62;4.07;;;;;;;18.18;80.91;98954.25;4478409;32;20115;-71
2022/08/07 04:09:07;;;;;;;4.20;3.33;;;;;;;18.20;80.86;98963.66;4485559;31;20171;-71
2022/08/07 04:11:44;;;;;;;4.85;4.03;;;;;;;18.24;80.74;98959.66;4484261;32;20084;-71
2022/08/07 04:14:33;;;;;;;5.82;3.47;;;;;;;18.21;80.82;98962.69;4485467;31;20093;-71
2022/08/07 04:17:11;;;;;;;5.50;3.70;;;;;;;18.25;80.68;98966.59;4485860;31;20092;-71
2022/08/07 04:19:49;;;;;;;4.70;3.35;;;;;;;18.27;80.56;98961.09;4485760;31;20084;-71
2022/08/07 04:22:18;;;;;;;5.07;3.10;;;;;;;18.32;80.18;98971.16;4471659;32;20092;-71
2022/08/07 04:24:50;;;;;;;4.43;3.28;;;;;;;18.26;80.52;98978.03;4484241;32;20105;-71
2022/08/07 04:27:19;;;;;;;5.03;3.33;;;;;;;18.22;80.90;98982.06;4484381;32;20160;-70
2022/08/07 04:30:06;;;;;;;5.20;3.75;;;;;;;18.18;81.12;98986.91;4485606;31;20143;-70
2022/08/07 04:32:42;;;;;;;7.47;3.55;;;;;;;18.25;80.89;98960.47;4485414;31;20106;-71
2022/08/07 04:35:14;;;;;;;4.82;3.47;;;;;;;18.34;80.74;98969.16;4484165;32;20088;-71
2022/08/07 04:37:42;;;;;;;4.00;3.25;;;;;;;18.35;80.83;98976.09;4473310;32;20161;-71
2022/08/07 04:40:29;;;;;;;10.93;3.42;;;;;;;18.42;80.60;98975.19;4468714;32;20092;-71
2022/08/07 04:42:58;;;;;;;5.00;3.50;;;;;;;18.52;80.50;98979.44;4469879;32;20619;-70
2022/08/07 04:45:41;;;;;;;5.35;3.30;;;;;;;18.56;80.33;98980.69;4469481;32;20524;-71
2022/08/07 04:48:40;;;;;;;3.53;3.20;;;;;;;18.55;80.12;98979.06;4469649;32;20162;-71
2022/08/07 04:51:26;;;;;;;4.97;3.20;;;;;;;18.63;79.59;98978.94;4469600;32;20057;-71
2022/08/07 04:54:04;;;;;;;4.22;3.50;;;;;;;18.69;79.38;98982.72;4468514;32;20096;-71
2022/08/07 04:56:45;;;;;;;4.30;3.05;;;;;;;18.72;79.02;98980.50;4469772;32;20473;-70
2022/08/07 04:59:42;;;;;;;4.97;3.70;;;;;;;18.79;78.48;98976.09;4468702;32;20089;-71
2022/08/07 05:02:35;;;;;;;5.28;3.20;;;;;;;18.79;78.44;98978.75;4468219;32;20146;-71
2022/08/07 05:05:45;;;;;;;3.75;2.97;;;;;;;18.80;78.21;98975.09;4469978;32;20586;-70
2022/08/07 05:08:25;;;;;;;;;;;;;;;18.93;77.80;98979.75;4440526;32;20097;-71
2022/08/07 05:11:26;;;;;;;5.55;3.22;;;;;;;18.99;77.46;98974.75;4441005;32;20174;-71
2022/08/07 05:14:29;;;;;;;4.62;2.83;;;;;;;18.96;77.44;98982.03;4451428;32;20298;-71
2022/08/07 05:17:18;;;;;;;3.20;2.90;;;;;;;19.10;76.75;98987.50;4451376;32;20126;-71
2022/08/07 05:20:07;;;;;;;3.17;2.87;;;;;;;19.15;76.25;98991.25;4441123;32;20121;-71
2022/08/07 05:22:37;;;;;;;5.12;3.17;;;;;;;19.26;75.53;98994.44;4438329;32;20108;-71
2022/08/07 05:25:07;;;;;;;4.82;3.50;;;;;;;19.37;75.02;98998.44;4438548;32;20833;-71
2022/08/07 05:27:55;;;;;;;5.07;3.08;;;;;;;19.40;74.58;99000.72;4440951;32;20097;-71
2022/08/07 05:30:43;;;;;;;2.80;2.50;;;;;;;19.45;74.42;98999.12;4451322;32;20200;-71
2022/08/07 05:33:14;;;;;;;3.80;2.95;;;;;;;19.51;73.99;99008.19;4451332;32;20104;-71
2022/08/07 05:35:45;;;;;;;6.97;3.10;;;;;;;19.56;74.18;99011.13;4438884;32;20539;-71
2022/08/07 05:38:14;;;;;;;3.50;2.90;;;;;;;19.73;73.55;99008.16;4438624;32;20116;-71
2022/08/07 05:41:02;;;;;;;4.25;3.08;;;;;;;19.76;73.35;99008.63;4440978;32;20228;-71
2022/08/07 05:43:41;;;;;;;4.95;2.87;;;;;;;19.85;73.16;99014.69;4455975;32;20442;-71
2022/08/07 05:46:30;;;;;;;3.80;3.40;;;;;;;20.02;72.46;99015.22;4484717;32;20149;-70
2022/08/07 05:48:58;;;;;;;5.00;2.87;;;;;;;20.16;71.74;99019.63;4484035;32;20147;-71
2022/08/07 05:51:26;;;;;;;3.80;2.78;;;;;;;20.34;70.88;99029.78;4484958;31;20092;-71
2022/08/07 05:54:03;;;;;;;3.08;2.78;;;;;;;20.46;70.57;99027.41;4485106;31;20219;-71
2022/08/07 05:56:51;;;;;;;3.28;2.67;;;;;;;20.61;70.22;99014.00;4485027;31;20100;-71
2022/08/07 05:59:20;;;;;;;3.83;2.58;;;;;;;20.71;69.69;99026.97;4484702;31;20522;-71
2022/08/07 06:01:48;;;;;;;2.92;2.65;;;;;;;20.81;69.10;99026.63;4483292;32;20441;-71
2022/08/07 06:04:17;;;;;;;2.37;2.00;;;;;;;20.88;68.62;99030.16;4483441;32;20571;-71
2022/08/07 06:06:45;;;;;;;3.30;2.15;;;;;;;20.87;68.88;99025.84;4483288;32;20129;-71
2022/08/07 06:09:22;;;;;;;6.90;2.95;;;;;;;20.98;68.51;99019.13;4483752;32;20126;-71
2022/08/07 06:12:10;;;;;;;3.58;3.22;;;;;;;20.98;68.02;99025.25;4483827;32;20096;-71
2022/08/07 06:14:42;;;;;;;4.80;3.10;;;;;;;20.81;68.83;99029.28;4484879;31;20175;-71
2022/08/07 06:17:18;;;;;;;3.22;2.92;;;;;;;20.84;68.41;99028.88;4484857;31;20106;-71
2022/08/07 06:19:49;;;;;;;4.47;3.03;;;;;;;20.77;69.02;99036.81;4484851;31;20215;-71
2022/08/07 06:22:32;;;;;;;3.80;2.97;;;;;;;20.83;68.61;99035.22;4483650;32;20092;-71
2022/08/07 06:25:07;;;;;;;3.75;2.67;;;;;;;20.71;69.16;99035.78;4483434;32;20097;-71
2022/08/07 06:27:36;;;;;;;4.10;2.92;;;;;;;20.46;69.91;99040.72;4484430;31;20080;-71
2022/08/07 06:30:23;;;;;;;3.72;3.12;;;;;;;20.53;69.40;99040.75;4484110;32;20478;-71
2022/08/07 06:33:09;;;;;;;3.87;3.35;;;;;;;20.62;68.99;99052.06;4484286;32;20128;-71
2022/08/07 06:35:43;;;;;;;;;;;;;;;20.49;69.69;99042.19;4486210;31;20110;-71
2022/08/07 06:38:30;;;;;;;4.40;4.00;;;;;;;20.62;69.60;99049.41;4470521;32;19980;-71
2022/08/07 06:40:58;;;;;;;5.12;3.62;;;;;;;20.47;72.00;99052.16;4470653;32;20084;-71
2022/08/07 06:43:28;;;;;;;3.90;3.10;;;;;;;20.27;77.19;99052.84;4470787;32;20109;-71
2022/08/07 06:46:07;;;;;;;5.47;3.42;;;;;;;20.25;78.50;99043.44;4469517;32;20526;-71
2022/08/07 06:48:39;;;;;;;5.90;4.28;;;;;;;19.93;83.69;99046.44;4469091;32;20096;-71
2022/08/07 06:51:16;;;;;;;4.93;4.00;;;;;;;19.83;84.18;99054.75;4470672;32;20081;-70
2022/08/07 06:54:02;;;;;;;5.15;3.47;;;;;;;20.17;87.08;99057.69;4470814;32;20147;-70
2022/08/07 06:56:50;;;;;;;3.83;3.45;;;;;;;20.10;86.81;99059.47;4470413;32;20202;-71
2022/08/07 06:59:26;;;;;;;6.32;3.70;;;;;;;20.18;86.87;99051.34;4470626;32;20097;-71
2022/08/07 07:02:18;;;;;;;4.43;3.78;;;;;;;20.21;86.12;99061.59;4469933;32;20088;-72
2022/08/07 07:05:05;;;;;;;6.28;3.95;;;;;;;20.21;85.61;99067.75;4470513;32;20112;-72
2022/08/07 07:07:33;;;;;;;5.22;3.95;;;;;;;20.35;86.32;99058.03;4486220;32;20149;-72
2022/08/07 07:10:28;;;;;;;4.72;3.92;;;;;;;20.59;87.87;99063.94;4485323;32;20088;-72
2022/08/07 07:13:03;;;;;;;5.47;4.22;;;;;;;20.76;85.82;99053.84;4486322;31;20129;-72
2022/08/07 07:15:33;;;;;;;4.30;3.90;;;;;;;20.81;87.27;99054.06;4486280;31;20092;-72
2022/08/07 07:18:14;;;;;;;;;;;;;;;20.77;85.36;99060.78;4486226;31;20097;-72
2022/08/07 07:21:29;;;;;;;4.15;3.72;;;;;;;20.54;85.49;99058.38;4485042;32;20428;-72
2022/08/07 07:24:16;;;;;;;4.80;4.00;;;;;;;20.68;85.21;99065.47;4484783;32;20085;-72
2022/08/07 07:26:45;;;;;;;4.72;3.72;;;;;;;20.68;85.72;99061.97;4484535;31;20096;-73
2022/08/07 07:29:23;;;;;;;4.00;3.60;;;;;;;20.68;82.54;99064.63;4484708;32;20097;-72
2022/08/07 07:32:11;;;;;;;4.30;3.90;;;;;;;20.83;80.89;99059.19;4484475;32;20108;-72
2022/08/07 07:34:45;;;;;;;4.30;3.30;;;;;;;20.94;77.17;99055.16;4484585;32;20100;-72
2022/08/07 07:37:16;;;;;;;4.03;3.62;;;;;;;21.32;77.69;99063.53;4484560;32;20239;-72
2022/08/07 07:40:06;;;;;;;3.45;2.83;;;;;;;21.76;75.73;99054.22;4484948;32;20088;-72
2022/08/07 07:42:43;;;;;;;2.70;2.30;;;;;;;22.20;73.95;99057.34;4484815;32;20084;-72
2022/08/07 07:45:18;;;;;;;4.72;2.08;;;;;;;22.31;69.75;99063.94;4485869;31;20536;-72
2022/08/07 07:47:51;;;;;;;4.25;2.35;;;;;;;22.26;66.26;99055.69;4483813;32;20105;-72
2022/08/07 07:50:21;;;;;;;2.12;1.87;;;;;;;22.46;67.88;99053.84;4484588;32;20096;-72
2022/08/07 07:53:07;;;;;;;3.42;1.92;;;;;;;22.28;66.41;99057.13;4485766;31;20085;-72
2022/08/07 07:55:54;;;;;;;2.75;2.12;;;;;;;22.37;64.41;99060.44;4484784;32;20080;-73
2022/08/07 07:58:30;;;;;;;2.92;2.10;;;;;;;22.60;63.06;99061.84;4484434;32;20110;-73
2022/08/07 08:01:08;;;;;;;3.90;2.08;;;;;;;22.96;61.51;99058.66;4485976;32;20097;-73
2022/08/07 08:03:57;;;;;;;6.12;1.87;;;;;;;23.37;63.03;99060.16;4485684;31;20084;-73
2022/08/07 08:06:39;;;;;;;3.65;1.90;;;;;;;23.62;57.98;99062.13;4485430;31;20079;-73
2022/08/07 08:09:19;;;;;;;2.30;1.48;;;;;;;23.74;58.98;99062.25;4484637;32;20099;-72
2022/08/07 08:11:52;;;;;;;2.05;1.80;;;;;;;23.74;57.11;99068.41;4484474;32;20168;-72
2022/08/07 08:14:34;;;;;;;2.65;1.50;;;;;;;23.88;58.67;99071.84;4484761;32;20100;-72
2022/08/07 08:17:07;;;;;;;2.65;1.45;;;;;;;24.10;56.00;99066.13;4485929;31;20072;-72
2022/08/07 08:20:01;;;;;;;1.98;1.75;;;;;;;24.11;56.31;99067.78;4484486;32;20436;-72
2022/08/07 08:28:25;;;;;;;1.67;1.50;;;;;;;24.69;53.47;99063.16;4484505;32;20159;-72
2022/08/07 08:31:16;;;;;;;1.80;1.55;;;;;;;24.83;52.11;99062.00;4485491;31;20138;-72
2022/08/07 08:34:05;;;;;;;4.30;1.80;;;;;;;25.30;51.84;99064.16;4485307;31;20092;-72
2022/08/07 08:36:35;;;;;;;1.65;1.50;;;;;;;25.67;50.96;99067.53;4485462;31;20163;-72
2022/08/07 08:39:06;;;;;;;2.05;1.70;;;;;;;25.84;49.33;99061.53;4484111;32;20119;-72
2022/08/07 08:41:40;;;;;;;2.20;1.73;;;;;;;25.48;50.30;99065.94;4485396;31;20088;-72
2022/08/07 08:44:47;;;;;;;1.98;1.70;;;;;;;25.53;50.46;99067.94;4484273;32;20377;-72
2022/08/07 08:47:29;;;;;;;2.72;1.70;;;;;;;25.61;51.80;99067.66;4483758;32;20080;-72
2022/08/07 08:50:21;;;;;;;2.42;1.80;;;;;;;25.67;49.52;99072.91;4484351;32;20111;-72
2022/08/07 08:53:14;;;;;;;1.98;1.77;;;;;;;25.94;48.83;99061.78;4485338;31;20108;-72
2022/08/07 08:55:52;;;;;;;1.62;1.50;;;;;;;25.99;48.87;99064.63;4485388;31;20441;-72
2022/08/07 08:58:34;;;;;;;2.17;1.30;;;;;;;25.71;48.52;99065.25;4482872;32;20147;-72
2022/08/07 09:01:13;;;;;;;1.85;1.50;;;;;;;25.96;48.91;99062.38;4485071;31;20096;-72
2022/08/07 09:03:54;;;;;;;2.33;1.60;;;;;;;26.49;50.64;99062.56;4483859;32;20116;-72
2022/08/07 09:06:39;;;;;;;2.17;1.62;;;;;;;26.81;50.72;99057.66;4474622;32;20158;-72
2022/08/07 09:09:43;;;;;;;5.03;1.80;;;;;;;26.71;48.36;99063.63;4468380;32;20130;-72
2022/08/07 09:12:19;;;;;;;4.68;1.90;;;;;;;26.76;47.43;99056.75;4468376;32;20077;-72
2022/08/07 09:15:13;;;;;;;3.50;1.70;;;;;;;26.51;47.70;99065.81;4469505;32;20082;-72
2022/08/07 09:18:46;;;;;;;2.10;1.90;;;;;;;27.03;46.64;99065.91;4518458;31;309719;-72
2022/08/07 09:21:36;;;;;;;2.00;1.90;;;;;;;27.03;46.64;99065.91;4512915;31;20107;-72
2022/08/07 09:24:40;;;;;;;2.97;2.20;;;;;;;26.17;47.22;99066.41;4512814;31;20080;-72
2022/08/07 09:27:32;;;;;;;6.85;2.00;;;;;;;26.30;48.20;99065.38;4512817;31;20092;-72
2022/08/07 09:30:20;;;;;;;5.43;2.20;;;;;;;26.66;46.33;99066.22;4512922;31;20103;-72
2022/08/07 09:33:02;;;;;;;2.80;2.03;;;;;;;26.28;47.96;99056.72;4512737;31;20104;-72
2022/08/07 09:36:01;;;;;;;2.50;2.08;;;;;;;26.28;47.60;99059.41;4511743;31;20087;-72
2022/08/07 09:38:53;;;;;;;3.42;1.90;;;;;;;26.80;46.73;99063.25;4495674;31;20107;-72
2022/08/07 09:41:37;;;;;;;2.08;1.87;;;;;;;27.06;45.91;99059.25;4496959;31;20146;-72
2022/08/07 09:44:31;;;;;;;;;;;;;;;27.58;46.43;99048.41;4497138;32;20114;-72
2022/08/07 09:47:39;;;;;;;3.87;2.40;;;;;;;27.83;45.54;99044.56;4495916;31;20076;-72
2022/08/07 09:51:04;;;;;;;5.05;2.00;;;;;;;27.93;45.93;99044.75;4495644;32;20159;-72
2022/08/07 09:53:55;;;;;;;2.50;2.30;;;;;;;27.96;45.48;99040.75;4496956;31;20084;-72
2022/08/07 09:56:43;;;;;;;2.30;2.08;;;;;;;28.25;43.68;99040.66;4495563;32;20083;-72
2022/08/07 09:59:43;;;;;;;4.95;2.12;;;;;;;28.55;43.92;99034.09;4496778;31;20446;-72
2022/08/07 10:02:29;;;;;;;;;;;;;;;28.41;43.14;99037.12;4496682;31;20088;-72
2022/08/07 10:05:06;;;;;;;3.37;2.03;;;;;;;29.11;43.27;99039.41;4497221;31;20024;-72
2022/08/07 10:07:57;;;;;;;3.90;1.90;;;;;;;29.53;41.42;99031.50;4512589;31;20114;-72
2022/08/07 10:10:46;;;;;;;2.30;2.03;;;;;;;30.02;41.82;99036.00;4512394;31;20178;-73
2022/08/07 10:14:11;;;;;;;4.22;2.47;;;;;;;29.88;40.59;99024.81;4511414;31;20106;-73
2022/08/07 10:16:58;;;;;;;3.12;2.00;;;;;;;29.53;41.54;99023.41;4511150;31;20091;-72
2022/08/07 10:19:44;;;;;;;2.72;2.20;;;;;;;29.26;41.00;99017.22;4512509;31;20091;-73
2022/08/07 10:22:44;;;;;;;3.35;2.25;;;;;;;28.71;41.64;99017.09;4512514;31;20440;-72
2022/08/07 10:25:11;;;;;;;3.97;2.45;;;;;;;28.84;41.92;99016.72;4512611;31;20080;-73
2022/08/07 10:27:57;;;;;;;7.62;2.30;;;;;;;29.06;42.32;99017.78;4512011;31;20096;-72
2022/08/07 10:30:47;;;;;;;4.30;2.30;;;;;;;29.15;43.69;99008.16;4501768;31;20141;-72
2022/08/07 10:33:32;;;;;;;2.20;2.00;;;;;;;29.07;42.90;99009.44;4501625;31;20198;-72
2022/08/07 10:36:42;;;;;;;2.70;2.40;;;;;;;29.29;43.32;99008.59;4501972;31;20791;-72
2022/08/07 10:39:56;;;;;;;4.15;2.45;;;;;;;29.18;42.42;99004.97;4501778;31;20137;-72
2022/08/07 10:42:37;;;;;;;5.90;2.45;;;;;;;29.78;41.99;99005.81;4436749;32;20106;-72
2022/08/07 10:45:18;;;;;;;8.40;2.30;;;;;;;29.88;41.31;99003.22;4436995;32;20089;-72
2022/08/07 10:48:20;;;;;;;2.92;2.42;;;;;;;30.11;40.00;99001.22;4436823;32;20097;-72
2022/08/07 10:51:09;;;;;;;3.42;2.30;;;;;;;30.45;40.41;99000.94;4424244;32;20097;-72
2022/08/07 10:54:07;;;;;;;3.58;2.30;;;;;;;30.39;39.84;98996.53;4436400;32;20126;-72
2022/08/07 10:56:53;;;;;;;2.65;2.33;;;;;;;30.46;40.56;98997.13;4424087;32;20183;-72
2022/08/07 10:59:46;;;;;;;3.22;2.30;;;;;;;31.08;38.97;99000.13;4436592;32;20084;-72
2022/08/07 11:02:41;;;;;;;2.87;2.20;;;;;;;31.11;40.21;98996.88;4436285;32;20093;-72
2022/08/07 11:05:29;;;;;;;2.53;2.28;;;;;;;30.83;39.92;98990.81;4424548;32;20136;-72
2022/08/07 11:08:44;;;;;;;2.90;2.45;;;;;;;30.73;40.30;98988.06;4436582;32;20161;-72
2022/08/07 11:11:23;;;;;;;3.12;2.37;;;;;;;30.79;39.26;98985.09;4434505;32;20101;-72
2022/08/07 11:13:55;;;;;;;3.00;2.70;;;;;;;30.36;39.42;98981.66;4424127;32;20179;-72
2022/08/07 11:16:47;;;;;;;3.65;2.62;;;;;;;29.81;40.26;98978.34;4436514;32;20181;-72
2022/08/07 11:19:36;;;;;;;2.83;2.53;;;;;;;29.66;40.34;98972.75;4474268;31;20806;-72
2022/08/07 11:22:21;;;;;;;3.00;2.70;;;;;;;29.50;40.50;98964.53;4500283;31;20171;-72
2022/08/07 11:25:35;;;;;;;2.83;2.62;;;;;;;29.60;40.36;98971.94;4501403;31;20099;-72
2022/08/07 11:28:22;;;;;;;4.05;2.87;;;;;;;29.29;40.41;98968.12;4500408;31;20110;-72
2022/08/07 11:31:03;;;;;;;5.80;2.70;;;;;;;28.99;41.39;98958.63;4500052;31;20088;-72
2022/08/07 11:33:46;;;;;;;7.65;2.60;;;;;;;28.98;41.41;98951.59;4501213;31;20143;-72
2022/08/07 11:36:36;;;;;;;3.80;2.67;;;;;;;28.94;41.96;98955.88;4492896;31;20092;-72
2022/08/07 11:39:14;;;;;;;4.10;2.70;;;;;;;28.90;41.60;98954.75;4501276;31;20091;-72
2022/08/07 11:41:54;;;;;;;3.20;2.90;;;;;;;29.45;42.00;98953.72;4500613;31;20096;-72
2022/08/07 11:44:54;;;;;;;3.97;2.80;;;;;;;30.14;40.12;98957.47;4501457;31;20131;-72
2022/08/07 11:47:59;;;;;;;4.05;2.50;;;;;;;30.53;39.68;98954.44;4495752;31;20100;-72
2022/08/07 11:51:03;;;;;;;2.87;2.60;;;;;;;30.43;38.31;98944.41;4501267;31;20421;-72
2022/08/07 11:53:59;;;;;;;4.10;2.85;;;;;;;31.07;38.21;98945.19;4499944;31;20590;-72
2022/08/07 11:57:00;;;;;;;5.45;2.60;;;;;;;31.09;36.61;98950.34;4499835;31;20106;-72
2022/08/07 11:59:58;;;;;;;4.10;2.97;;;;;;;30.91;38.85;98941.59;4501187;31;20092;-72
2022/08/07 12:03:22;;;;;;;2.92;2.65;;;;;;;31.68;37.81;98932.78;4499734;31;20122;-72
2022/08/07 12:06:15;;;;;;;;;;;;;;;31.98;36.11;98931.94;4501444;31;20088;-72
2022/08/07 12:09:13;;;;;;;6.22;2.83;;;;;;;31.60;36.58;98928.75;4501261;31;19963;-72
2022/08/07 12:11:51;;;;;;;2.85;2.62;;;;;;;31.39;36.67;98911.66;4501112;31;20092;-72
2022/08/07 12:14:47;;;;;;;3.57;3.00;;;;;;;31.40;37.61;98923.28;4500049;31;20100;-73
2022/08/07 12:17:44;;;;;;;3.75;3.03;;;;;;;31.53;37.68;98921.94;4500950;31;20532;-72
2022/08/07 12:20:35;;;;;;;4.18;2.62;;;;;;;31.10;38.94;98922.19;4499901;31;20096;-72
2022/08/07 12:23:02;;;;;;;4.00;2.78;;;;;;;30.85;39.44;98917.50;4501078;31;20111;-72
2022/08/07 12:25:55;;;;;;;;;;;;;;;31.12;38.27;98911.91;4501383;31;20091;-72
2022/08/07 12:29:05;;;;;;;6.82;2.78;;;;;;;31.72;37.93;98914.91;4500537;31;20002;-72
2022/08/07 12:31:42;;;;;;;3.00;2.80;;;;;;;32.25;35.27;98917.25;4499317;31;20084;-72
2022/08/07 12:34:32;;;;;;;2.83;2.45;;;;;;;32.51;35.86;98911.72;4499897;31;20115;-72
2022/08/07 12:37:00;;;;;;;4.85;2.92;;;;;;;32.82;35.04;98898.03;4499550;31;20104;-72
2022/08/07 12:39:36;;;;;;;6.15;3.22;;;;;;;33.19;34.35;98912.97;4499857;31;20092;-72
2022/08/07 12:42:21;;;;;;;2.85;2.65;;;;;;;32.90;35.47;98903.69;4499954;31;20126;-73
2022/08/07 12:44:57;;;;;;;3.28;2.97;;;;;;;33.13;35.06;98903.22;4499736;31;20100;-72
2022/08/07 12:47:41;;;;;;;3.17;2.87;;;;;;;32.97;34.09;98902.53;4499769;31;20112;-72